createdAt,value
2019-02-10T00:03:41.029Z,80.14
2019-02-10T00:06:09.827Z,80.14
2019-02-10T00:08:38.457Z,80.09
2019-02-10T00:11:07.073Z,80.00
2019-02-10T00:13:36.629Z,79.84
2019-02-10T00:16:11.602Z,80.43
2019-02-10T00:18:40.148Z,80.24
2019-02-10T00:21:08.787Z,80.63
2019-02-10T00:23:37.346Z,81.19
2019-02-10T00:26:06.049Z,81.13
2019-02-10T00:28:34.602Z,81.05
2019-02-10T00:31:03.178Z,80.88
2019-02-10T00:33:33.252Z,80.93
2019-02-10T00:36:01.895Z,80.62
2019-02-10T00:38:30.958Z,80.46
2019-02-10T00:41:00.763Z,80.44
2019-02-10T00:43:29.267Z,80.35
2019-02-10T00:45:57.843Z,80.47
2019-02-10T00:48:26.459Z,80.40
2019-02-10T00:50:55.113Z,80.57
2019-02-10T00:53:24.209Z,80.63
2019-02-10T00:55:52.777Z,81.69
2019-02-10T00:58:21.660Z,80.97
2019-02-10T01:00:50.625Z,81.28
2019-02-10T01:03:19.789Z,81.28
2019-02-10T01:05:48.679Z,81.34
2019-02-10T01:08:17.253Z,80.92
2019-02-10T01:10:45.803Z,81.42
2019-02-10T01:13:14.425Z,81.21
2019-02-10T01:15:43.039Z,80.98
2019-02-10T01:18:11.645Z,80.93
2019-02-10T01:20:40.206Z,81.36
2019-02-10T01:23:08.786Z,82.15
2019-02-10T01:25:37.498Z,82.22
2019-02-10T01:28:06.321Z,81.94
2019-02-10T01:30:34.875Z,82.80
2019-02-10T01:33:04.081Z,82.80
2019-02-10T01:35:35.958Z,82.77
2019-02-10T01:38:04.884Z,83.18
2019-02-10T01:40:33.449Z,83.18
2019-02-10T01:43:04.730Z,83.18
2019-02-10T01:45:33.407Z,83.44
2019-02-10T01:48:05.137Z,83.44
2019-02-10T01:50:33.685Z,83.45
2019-02-10T01:53:02.277Z,83.22
2019-02-10T01:55:32.918Z,83.22
2019-02-10T01:58:03.140Z,83.85
2019-02-10T02:00:33.586Z,83.85
2019-02-10T02:03:02.321Z,84.35
2019-02-10T02:05:31.029Z,84.35
2019-02-10T02:08:02.396Z,85.07
2019-02-10T02:10:31.151Z,85.43
2019-02-10T02:12:59.804Z,85.52
2019-02-10T02:15:28.401Z,85.65
2019-02-10T02:17:56.966Z,86.12
2019-02-10T02:20:25.859Z,86.12
2019-02-10T02:22:54.428Z,85.76
2019-02-10T02:25:26.356Z,86.18
2019-02-10T02:27:54.925Z,86.39
2019-02-10T02:30:23.486Z,86.29
2019-02-10T02:32:52.445Z,86.29
2019-02-10T02:35:21.070Z,86.61
2019-02-10T02:37:49.729Z,86.42
2019-02-10T02:40:18.269Z,86.46
2019-02-10T02:42:46.886Z,86.41
2019-02-10T02:45:15.493Z,86.42
2019-02-10T02:47:44.105Z,86.16
2019-02-10T02:50:12.717Z,85.83
2019-02-10T02:52:42.754Z,85.83
2019-02-10T02:55:11.446Z,86.00
2019-02-10T02:57:40.031Z,86.30
2019-02-10T03:00:10.625Z,86.14
2019-02-10T03:02:39.171Z,86.14
2019-02-10T03:05:09.820Z,86.09
2019-02-10T03:07:38.424Z,86.09
2019-02-10T03:10:08.736Z,86.52
2019-02-10T03:12:37.381Z,86.32
2019-02-10T03:15:08.429Z,86.64
2019-02-10T03:17:36.971Z,86.86
2019-02-10T03:20:09.882Z,86.86
2019-02-10T03:22:38.434Z,87.04
2019-02-10T03:25:08.043Z,87.43
2019-02-10T03:27:36.582Z,87.37
2019-02-10T03:30:10.366Z,87.36
2019-02-10T03:32:38.921Z,87.49
2019-02-10T03:35:09.108Z,87.51
2019-02-10T03:37:37.706Z,87.63
2019-02-10T03:40:08.164Z,87.96
2019-02-10T03:42:36.828Z,88.80
2019-02-10T03:45:07.854Z,88.80
2019-02-10T03:47:36.395Z,88.55
2019-02-10T03:50:07.227Z,88.80
2019-02-10T03:52:36.152Z,88.81
2019-02-10T03:55:05.867Z,88.81
2019-02-10T03:57:34.959Z,89.07
2019-02-10T04:00:05.638Z,89.33
2019-02-10T04:02:34.261Z,89.23
2019-02-10T04:05:02.840Z,89.23
2019-02-10T04:07:36.085Z,89.17
2019-02-10T04:10:03.197Z,89.39
2019-02-10T04:12:33.259Z,89.55
2019-02-10T04:15:05.707Z,89.44
2019-02-10T04:17:34.631Z,90.26
2019-02-10T04:20:03.947Z,90.26
2019-02-10T04:22:35.389Z,89.87
2019-02-10T04:25:04.272Z,90.18
2019-02-10T04:27:33.184Z,90.18
2019-02-10T04:30:03.306Z,89.99
2019-02-10T04:32:34.929Z,90.12
2019-02-10T04:35:03.532Z,90.21
2019-02-10T04:37:32.084Z,90.53
2019-02-10T04:40:02.397Z,90.63
2019-02-10T04:42:31.310Z,90.73
2019-02-10T04:45:02.240Z,90.65
2019-02-10T04:47:30.859Z,90.55
2019-02-10T04:50:04.769Z,90.92
2019-02-10T04:52:33.391Z,91.38
2019-02-10T04:55:07.033Z,91.16
2019-02-10T04:57:35.721Z,91.16
2019-02-10T05:00:06.570Z,90.97
2019-02-10T05:02:35.242Z,90.97
2019-02-10T05:05:03.974Z,91.00
2019-02-10T05:07:35.665Z,91.09
2019-02-10T05:10:05.502Z,91.09
2019-02-10T05:12:34.292Z,90.82
2019-02-10T05:15:02.926Z,90.61
2019-02-10T05:17:31.535Z,90.62
2019-02-10T05:20:03.158Z,90.15
2019-02-10T05:22:33.386Z,90.15
2019-02-10T05:25:05.966Z,89.67
2019-02-10T05:27:34.505Z,89.67
2019-02-10T05:30:03.194Z,90.08
2019-02-10T05:32:31.942Z,90.36
2019-02-10T05:35:00.512Z,90.36
2019-02-10T05:37:29.253Z,89.98
2019-02-10T05:39:57.834Z,89.88
2019-02-10T05:42:26.542Z,89.78
2019-02-10T05:44:55.191Z,89.87
2019-02-10T05:47:26.794Z,89.63
2019-02-10T05:49:55.494Z,89.53
2019-02-10T05:52:24.054Z,89.60
2019-02-10T05:54:52.677Z,89.60
2019-02-10T05:57:22.650Z,89.33
2019-02-10T05:59:51.195Z,89.33
2019-02-10T06:02:21.405Z,89.26
2019-02-10T06:04:50.070Z,89.10
2019-02-10T06:07:18.666Z,89.15
2019-02-10T06:09:47.230Z,88.74
2019-02-10T06:12:15.803Z,88.55
2019-02-10T06:14:44.432Z,88.34
2019-02-10T06:17:13.097Z,88.34
2019-02-10T06:19:41.980Z,87.79
2019-02-10T06:22:10.953Z,87.84
2019-02-10T06:24:39.936Z,87.96
2019-02-10T06:27:08.856Z,87.62
2019-02-10T06:29:37.412Z,87.38
2019-02-10T06:32:05.994Z,87.50
2019-02-10T06:34:34.554Z,87.36
2019-02-10T06:37:03.130Z,87.16
2019-02-10T06:39:33.608Z,87.16
2019-02-10T06:42:02.315Z,87.22
2019-02-10T06:44:30.873Z,87.22
2019-02-10T06:46:59.539Z,87.01
2019-02-10T06:49:28.067Z,86.99
2019-02-10T06:51:56.818Z,87.17
2019-02-10T06:54:25.917Z,87.10
2019-02-10T06:56:54.494Z,87.10
2019-02-10T06:59:24.686Z,86.31
2019-02-10T07:04:37.292Z,86.16
2019-02-10T07:07:06.028Z,86.16
2019-02-10T07:09:37.483Z,86.10
2019-02-10T07:12:28.748Z,86.07
2019-02-10T07:15:00.418Z,86.07
2019-02-10T07:17:31.621Z,86.07
2019-02-10T07:20:38.536Z,85.86
2019-02-10T07:23:43.513Z,85.86
2019-02-10T07:26:14.267Z,85.82
2019-02-10T07:28:42.841Z,85.47
2019-02-10T07:31:11.532Z,85.47
2019-02-10T07:34:04.091Z,85.26
2019-02-10T07:37:10.921Z,85.15
2019-02-10T07:39:57.710Z,85.01
2019-02-10T07:42:37.971Z,85.01
2019-02-10T07:45:15.530Z,84.47
2019-02-10T07:47:50.136Z,83.82
2019-02-10T07:50:27.475Z,83.82
2019-02-10T07:53:02.120Z,83.60
2019-02-10T07:59:11.032Z,83.50
2019-02-10T08:02:01.520Z,83.50
2019-02-10T08:04:39.221Z,83.10
2019-02-10T08:07:17.559Z,82.67
2019-02-10T08:10:04.309Z,82.67
2019-02-10T08:12:38.907Z,82.36
2019-02-10T08:15:13.144Z,81.82
2019-02-10T08:17:47.514Z,81.63
2019-02-10T08:20:46.963Z,81.31
2019-02-10T08:23:27.226Z,82.05
2019-02-10T08:26:04.707Z,82.95
2019-02-10T08:28:39.004Z,85.28
2019-02-10T08:31:34.280Z,85.28
2019-02-10T08:34:26.457Z,87.00
2019-02-10T08:37:31.793Z,87.96
2019-02-10T08:40:15.212Z,88.73
2019-02-10T08:42:46.831Z,88.98
2019-02-10T08:45:45.063Z,89.47
2019-02-10T08:48:19.532Z,90.07
2019-02-10T08:50:53.874Z,90.83
2019-02-10T08:53:24.787Z,91.36
2019-02-10T08:55:53.332Z,90.99
2019-02-10T08:58:21.895Z,90.99
2019-02-10T09:00:50.445Z,91.24
2019-02-10T09:03:19.846Z,92.39
2019-02-10T09:05:48.557Z,92.35
2019-02-10T09:08:17.127Z,92.35
2019-02-10T09:10:45.699Z,94.08
2019-02-10T09:13:14.316Z,94.08
2019-02-10T09:15:43.272Z,95.28
2019-02-10T09:18:11.981Z,95.28
2019-02-10T09:20:40.929Z,95.93
2019-02-10T09:23:09.472Z,96.56
2019-02-10T09:25:38.050Z,96.87
2019-02-10T09:28:06.619Z,96.87
2019-02-10T09:30:35.180Z,97.02
2019-02-10T09:33:04.146Z,97.59
2019-02-10T09:35:33.061Z,97.59
2019-02-10T09:38:03.327Z,97.96
2019-02-10T09:40:34.676Z,98.00
2019-02-10T09:43:03.247Z,98.03
2019-02-10T09:45:33.335Z,98.13
2019-02-10T09:48:05.051Z,97.81
2019-02-10T09:50:33.630Z,98.12
2019-02-10T09:53:02.187Z,98.12
2019-02-10T09:55:32.577Z,98.09
2019-02-10T09:58:03.796Z,98.16
2019-02-10T10:00:33.903Z,98.11
2019-02-10T10:03:04.002Z,98.27
2019-02-10T10:05:35.472Z,98.27
2019-02-10T10:08:04.020Z,98.39
2019-02-10T10:10:35.373Z,98.08
2019-02-10T10:13:03.994Z,98.23
2019-02-10T10:15:33.137Z,98.22
2019-02-10T10:18:02.158Z,98.23
2019-02-10T10:20:32.473Z,97.93
2019-02-10T10:23:01.539Z,97.93
2019-02-10T10:25:30.520Z,98.31
2019-02-10T10:27:59.040Z,98.39
2019-02-10T10:30:27.611Z,98.35
2019-02-10T10:32:56.166Z,98.41
2019-02-10T10:35:24.744Z,98.22
2019-02-10T10:37:53.299Z,98.22
2019-02-10T10:40:21.944Z,98.26
2019-02-10T10:42:50.641Z,98.38
2019-02-10T10:45:20.652Z,98.54
2019-02-10T10:47:49.209Z,98.39
2019-02-10T10:50:18.171Z,98.42
2019-02-10T10:52:46.919Z,98.42
2019-02-10T10:55:15.804Z,98.46
2019-02-10T10:57:44.762Z,98.47
2019-02-10T11:00:15.253Z,98.38
2019-02-10T11:02:43.860Z,98.38
2019-02-10T11:05:12.622Z,98.44
2019-02-10T11:07:41.996Z,98.67
2019-02-10T11:10:12.891Z,98.84
2019-02-10T11:12:41.455Z,98.98
2019-02-10T11:15:15.055Z,99.05
2019-02-10T11:17:43.638Z,99.22
2019-02-10T11:20:12.725Z,99.00
2019-02-10T11:22:41.361Z,98.95
2019-02-10T11:25:11.841Z,98.92
2019-02-10T11:27:40.394Z,98.92
2019-02-10T11:30:14.672Z,99.16
2019-02-10T11:32:43.268Z,99.29
2019-02-10T11:35:12.139Z,99.19
2019-02-10T11:37:41.419Z,99.19
2019-02-10T11:40:33.744Z,99.43
2019-02-10T11:43:04.230Z,99.38
2019-02-10T11:45:33.731Z,99.36
2019-02-10T11:48:03.972Z,99.29
2019-02-10T11:50:35.475Z,99.30
2019-02-10T11:53:04.424Z,99.27
2019-02-10T11:55:33.371Z,99.27
2019-02-10T11:58:02.680Z,99.15
2019-02-10T12:00:32.183Z,99.13
2019-02-10T12:03:02.815Z,99.11
2019-02-10T12:05:34.080Z,99.12
2019-02-10T12:08:05.280Z,98.97
2019-02-10T12:10:35.787Z,98.90
2019-02-10T12:13:05.424Z,98.89
2019-02-10T12:15:34.772Z,98.56
2019-02-10T12:18:03.588Z,98.04
2019-02-10T12:20:33.127Z,97.93
2019-02-10T12:23:04.187Z,98.04
2019-02-10T12:25:33.475Z,98.06
2019-02-10T12:28:02.694Z,98.11
2019-02-10T12:30:34.454Z,97.96
2019-02-10T12:33:03.052Z,97.98
2019-02-10T12:35:33.478Z,97.86
2019-02-10T12:38:02.394Z,97.85
2019-02-10T12:40:30.936Z,97.59
2019-02-10T12:43:03.850Z,97.58
2019-02-10T12:45:32.372Z,97.59
2019-02-10T12:48:00.971Z,97.54
2019-02-10T12:50:29.772Z,97.70
2019-02-10T12:52:58.347Z,97.96
2019-02-10T12:55:27.352Z,97.77
2019-02-10T12:57:56.411Z,97.67
2019-02-10T13:00:24.994Z,97.54
2019-02-10T13:02:53.547Z,97.16
2019-02-10T13:05:22.123Z,96.86
2019-02-10T13:07:50.687Z,96.66
2019-02-10T13:10:19.333Z,96.65
2019-02-10T13:12:47.869Z,96.33
2019-02-10T13:15:16.457Z,96.31
2019-02-10T13:17:45.004Z,96.38
2019-02-10T13:20:14.049Z,96.37
2019-02-10T13:22:42.745Z,96.66
2019-02-10T13:25:14.921Z,96.60
2019-02-10T13:27:43.554Z,96.66
2019-02-10T13:30:15.127Z,96.71
2019-02-10T13:32:43.754Z,96.29
2019-02-10T13:35:12.466Z,96.63
2019-02-10T13:37:41.360Z,97.00
2019-02-10T13:40:16.999Z,97.29
2019-02-10T13:42:45.925Z,97.46
2019-02-10T13:45:14.590Z,97.63
2019-02-10T13:47:43.488Z,97.96
2019-02-10T13:50:17.097Z,97.96
2019-02-10T13:52:45.938Z,98.10
2019-02-10T13:55:15.713Z,98.30
2019-02-10T13:57:44.327Z,98.36
2019-02-10T14:00:15.539Z,98.25
2019-02-10T14:02:44.090Z,98.50
2019-02-10T14:05:12.731Z,98.40
2019-02-10T14:07:41.300Z,98.28
2019-02-10T14:10:13.563Z,98.21
2019-02-10T14:12:42.124Z,98.18
2019-02-10T14:15:13.195Z,98.44
2019-02-10T14:17:41.982Z,98.49
2019-02-10T14:20:18.612Z,98.56
2019-02-10T14:22:47.163Z,98.64
2019-02-10T14:25:15.894Z,98.79
2019-02-10T14:27:44.913Z,98.96
2019-02-10T14:30:24.386Z,99.06
2019-02-10T14:32:52.998Z,99.06
2019-02-10T14:35:23.636Z,99.25
2019-02-10T14:37:53.825Z,99.41
2019-02-10T14:40:24.379Z,99.55
2019-02-10T14:42:55.593Z,99.57
2019-02-10T14:45:27.288Z,99.67
2019-02-10T14:47:56.210Z,99.70
2019-02-10T14:50:24.837Z,99.70
2019-02-10T14:52:54.893Z,99.65
2019-02-10T14:55:25.339Z,99.63
2019-02-10T14:57:53.943Z,99.75
2019-02-10T15:00:22.515Z,99.75
2019-02-10T15:02:52.351Z,99.56
2019-02-10T15:05:22.921Z,99.56
2019-02-10T15:07:51.504Z,99.84
2019-02-10T15:10:21.313Z,99.94
2019-02-10T15:12:49.858Z,99.98
2019-02-10T15:15:18.807Z,100.00
2019-02-10T15:17:47.371Z,100.00
2019-02-10T15:20:15.957Z,100.00
2019-02-10T15:22:44.634Z,100.00
2019-02-10T15:25:14.442Z,100.00
2019-02-10T15:27:44.612Z,100.00
2019-02-10T15:30:15.433Z,100.00
2019-02-10T15:32:44.013Z,100.00
2019-02-10T15:35:18.408Z,100.00
2019-02-10T15:37:47.247Z,100.00
2019-02-10T15:40:15.804Z,100.00
2019-02-10T15:42:44.377Z,100.00
2019-02-10T15:45:13.968Z,100.00
2019-02-10T15:47:43.049Z,100.00
2019-02-10T15:50:13.045Z,100.00
2019-02-10T15:52:41.618Z,100.00
2019-02-10T15:55:14.520Z,100.00
2019-02-10T15:57:43.092Z,100.00
2019-02-10T16:00:26.614Z,100.00
2019-02-10T16:02:55.203Z,100.00
2019-02-10T16:05:23.748Z,100.00
2019-02-10T16:07:54.029Z,100.00
2019-02-10T16:10:22.576Z,100.00
2019-02-10T16:12:51.542Z,100.00
2019-02-10T16:15:20.091Z,100.00
2019-02-10T16:17:48.691Z,100.00
2019-02-10T16:20:17.243Z,100.00
2019-02-10T16:22:45.826Z,100.00
2019-02-10T16:25:14.795Z,100.00
2019-02-10T16:27:43.686Z,100.00
2019-02-10T16:30:18.053Z,100.00
2019-02-10T16:32:50.003Z,100.00
2019-02-10T16:35:17.036Z,100.00
2019-02-10T16:37:45.602Z,100.00
2019-02-10T16:40:19.286Z,100.00
2019-02-10T16:42:47.857Z,100.00
2019-02-10T16:45:16.482Z,100.00
2019-02-10T16:47:45.072Z,100.00
2019-02-10T16:50:14.951Z,100.00
2019-02-10T16:52:43.522Z,100.00
2019-02-10T16:55:17.187Z,100.00
2019-02-10T16:57:45.762Z,100.00
2019-02-10T17:00:15.751Z,100.00
2019-02-10T17:02:44.403Z,100.00
2019-02-10T17:05:14.108Z,100.00
2019-02-10T17:07:42.697Z,100.00
2019-02-10T17:10:18.728Z,99.79
2019-02-10T17:12:47.674Z,99.64
2019-02-10T17:15:16.234Z,99.54
2019-02-10T17:17:44.809Z,99.63
2019-02-10T17:20:14.408Z,99.65
2019-02-10T17:22:43.355Z,99.57
2019-02-10T17:25:24.098Z,99.46
2019-02-10T17:27:52.664Z,99.39
2019-02-10T17:30:22.602Z,99.23
2019-02-10T17:32:52.993Z,99.01
2019-02-10T17:35:23.636Z,98.81
2019-02-10T17:37:52.554Z,98.74
2019-02-10T17:40:37.569Z,98.58
2019-02-10T17:43:06.139Z,98.49
2019-02-10T17:45:34.685Z,98.23
2019-02-10T17:48:03.300Z,98.25
2019-02-10T17:50:31.876Z,98.06
2019-02-10T17:53:00.425Z,97.81
2019-02-10T17:55:28.997Z,97.74
2019-02-10T17:57:57.973Z,97.89
2019-02-10T18:00:28.187Z,97.81
2019-02-10T18:02:56.744Z,97.77
2019-02-10T18:05:25.663Z,97.79
2019-02-10T18:07:55.752Z,97.49
2019-02-10T18:10:27.087Z,97.44
2019-02-10T18:12:55.634Z,97.35
2019-02-10T18:15:43.672Z,97.26
2019-02-10T18:18:30.082Z,97.25
2019-02-10T18:21:16.779Z,96.83
2019-02-10T18:23:47.004Z,96.12
2019-02-10T18:26:29.069Z,95.77
2019-02-10T18:29:05.159Z,95.80
2019-02-10T18:31:35.345Z,95.34
2019-02-10T18:34:14.190Z,95.12
2019-02-10T18:36:47.351Z,95.13
2019-02-10T18:39:26.489Z,94.88
2019-02-10T18:42:20.626Z,94.30
2019-02-10T18:44:53.507Z,93.66
2019-02-10T18:47:35.844Z,93.46
2019-02-10T18:50:08.002Z,93.08
2019-02-10T18:52:38.198Z,93.13
2019-02-10T18:55:08.649Z,92.88
2019-02-10T18:57:47.773Z,92.78
2019-02-10T19:00:34.491Z,93.03
2019-02-10T19:03:13.442Z,93.28
2019-02-10T19:05:55.514Z,93.29
2019-02-10T19:08:32.945Z,93.33
2019-02-10T19:11:09.657Z,93.02
2019-02-10T19:13:39.835Z,92.64
2019-02-10T19:16:10.420Z,91.97
2019-02-10T19:18:55.280Z,91.82
2019-02-10T19:21:28.245Z,91.80
2019-02-10T19:24:01.190Z,91.73
2019-02-10T19:26:49.171Z,91.39
2019-02-10T19:29:22.368Z,91.02
2019-02-10T19:31:56.454Z,90.19
2019-02-10T19:34:41.972Z,91.17
2019-02-10T19:37:12.193Z,91.02
2019-02-10T19:39:42.386Z,90.53
2019-02-10T19:42:18.889Z,90.86
2019-02-10T19:44:58.119Z,90.72
2019-02-10T19:47:28.848Z,90.13
2019-02-10T19:49:59.051Z,90.40
2019-02-10T19:52:29.249Z,89.98
2019-02-10T19:54:59.503Z,91.11
2019-02-10T19:57:35.472Z,89.99
2019-02-10T20:00:13.171Z,91.07
2019-02-10T20:03:00.251Z,91.34
2019-02-10T20:05:42.264Z,92.11
2019-02-10T20:08:18.270Z,92.88
2019-02-10T20:10:48.960Z,93.67
2019-02-10T20:13:19.530Z,93.66
2019-02-10T20:15:50.093Z,93.29
2019-02-10T20:18:20.371Z,93.06
2019-02-10T20:20:53.775Z,93.77
2019-02-10T20:23:39.765Z,94.32
2019-02-10T20:26:40.145Z,93.35
2019-02-10T20:29:13.607Z,93.57
2019-02-10T20:31:49.718Z,93.70
2019-02-10T20:34:26.694Z,93.06
2019-02-10T20:37:15.901Z,92.84
2019-02-10T20:40:02.663Z,92.41
2019-02-10T20:42:39.168Z,92.69
2019-02-10T20:45:12.485Z,91.16
2019-02-10T20:47:58.531Z,91.46
2019-02-10T20:50:38.624Z,91.14
2019-02-10T20:53:08.798Z,90.61
2019-02-10T20:55:39.010Z,88.83
2019-02-10T20:58:09.212Z,88.49
2019-02-10T21:00:40.132Z,88.17
2019-02-10T21:03:19.241Z,87.66
2019-02-10T21:06:07.564Z,87.54
2019-02-10T21:08:40.712Z,87.30
2019-02-10T21:11:20.101Z,87.84
2019-02-10T21:13:50.311Z,88.42
2019-02-10T21:16:29.387Z,89.65
2019-02-10T21:19:17.968Z,89.51
2019-02-10T21:24:39.100Z,91.73
2019-02-10T21:27:18.547Z,92.73
2019-02-10T21:29:57.834Z,93.13
2019-02-10T21:32:36.889Z,93.36
2019-02-10T21:35:17.112Z,93.35
2019-02-10T21:37:50.432Z,93.75
2019-02-10T21:40:26.472Z,93.69
2019-02-10T21:42:56.723Z,93.48
2019-02-10T21:45:30.120Z,93.45
2019-02-10T21:48:00.405Z,93.17
2019-02-10T21:50:29.090Z,93.02
2019-02-10T21:52:57.726Z,93.40
2019-02-10T21:55:26.274Z,94.01
2019-02-10T21:57:54.826Z,94.21
2019-02-10T22:00:25.275Z,94.69
2019-02-10T22:02:53.899Z,95.10
2019-02-10T22:05:24.692Z,95.09
2019-02-10T22:07:54.824Z,95.61
2019-02-10T22:10:24.912Z,95.86
2019-02-10T22:12:55.047Z,95.53
2019-02-10T22:15:27.062Z,95.64
2019-02-10T22:17:55.659Z,95.88
2019-02-10T22:20:25.764Z,96.46
2019-02-10T22:22:57.435Z,96.38
2019-02-10T22:25:25.999Z,96.53
2019-02-10T22:27:54.534Z,96.32
2019-02-10T22:30:23.247Z,96.70
2019-02-10T22:32:52.897Z,96.63
2019-02-10T22:35:23.401Z,96.32
2019-02-10T22:37:54.878Z,96.02
2019-02-10T22:40:24.960Z,95.72
2019-02-10T22:42:56.337Z,95.45
2019-02-10T22:45:24.900Z,95.45
2019-02-10T22:47:54.980Z,95.23
2019-02-10T22:50:26.656Z,94.78
2019-02-10T22:52:55.201Z,95.13
2019-02-10T22:55:23.777Z,95.14
2019-02-10T22:57:53.959Z,95.30
2019-02-10T23:00:36.306Z,95.62
2019-02-10T23:03:05.279Z,95.96
2019-02-10T23:05:34.184Z,95.91
2019-02-10T23:08:03.111Z,95.73
2019-02-10T23:10:32.195Z,94.75
2019-02-10T23:13:00.742Z,93.90
2019-02-10T23:15:29.653Z,93.58
2019-02-10T23:17:58.209Z,93.60
2019-02-10T23:20:26.778Z,93.34
2019-02-10T23:22:55.322Z,92.74
2019-02-10T23:25:23.896Z,93.48
2019-02-10T23:27:54.181Z,92.53
2019-02-10T23:30:22.821Z,92.59
2019-02-10T23:32:51.379Z,92.23
2019-02-10T23:35:20.330Z,92.33
2019-02-10T23:37:48.900Z,91.94
2019-02-10T23:40:17.456Z,92.02
2019-02-10T23:42:46.011Z,91.67
2019-02-10T23:45:14.568Z,91.59
2019-02-10T23:47:43.525Z,91.69
2019-02-10T23:50:12.401Z,92.46
2019-02-10T23:52:40.952Z,92.45
2019-02-10T23:55:12.279Z,92.11
2019-02-10T23:57:40.846Z,91.42
